Time;durP1;ratioP1;P1;durP2;ratioP2;P2;SDS_P1;SDS_P2;PMS_P1;PMS_P2;Temp;Humidity;BMP_temperature;BMP_pressure;BME280_temperature;BME280_humidity;BME280_pressure;Samples;Min_cycle;Max_cycle;Signal;HPM_P1;HPM_P2
2022/07/27 00:00:43;;;;;;;6.68;6.18;;;;;;;19.30;57.19;100581.44;5120532;27;20537;-76
2022/07/27 00:03:08;;;;;;;7.40;6.70;;;;;;;19.26;56.69;100588.72;5119954;27;20027;-77
2022/07/27 00:05:34;;;;;;;7.88;7.32;;;;;;;19.21;56.73;100592.53;5104346;27;20058;-77
2022/07/27 00:07:59;;;;;;;7.43;6.93;;;;;;;19.25;56.33;100599.47;5122147;27;20405;-77
2022/07/27 00:10:24;;;;;;;6.40;5.75;;;;;;;19.22;56.26;100594.25;5121783;27;20509;-77
2022/07/27 00:12:50;;;;;;;6.90;6.10;;;;;;;19.17;55.69;100597.13;5122679;27;20050;-77
2022/07/27 00:15:15;;;;;;;7.68;7.18;;;;;;;19.17;55.25;100597.13;5120194;27;20036;-77
2022/07/27 00:17:40;;;;;;;6.35;5.90;;;;;;;19.10;54.03;100595.66;5116381;27;20040;-77
2022/07/27 00:20:06;;;;;;;8.23;7.72;;;;;;;19.08;53.46;100597.50;5123237;27;20091;-77
2022/07/27 00:22:31;;;;;;;8.52;7.82;;;;;;;18.99;52.36;100603.22;5119217;27;20043;-77
2022/07/27 00:24:57;;;;;;;8.27;7.75;;;;;;;18.87;51.84;100598.38;5087758;28;20095;-77
2022/07/27 00:27:22;;;;;;;8.82;7.95;;;;;;;18.93;51.78;100600.78;5121200;28;20118;-77
2022/07/27 00:29:48;;;;;;;10.05;9.25;;;;;;;18.93;50.05;100598.13;5123251;28;20164;-77
2022/07/27 00:32:13;;;;;;;9.90;9.07;;;;;;;18.83;50.60;100601.13;5102387;28;20062;-76
2022/07/27 00:34:39;;;;;;;10.27;9.48;;;;;;;18.73;49.32;100607.78;5121551;28;20061;-77
2022/07/27 00:37:04;;;;;;;10.90;10.20;;;;;;;18.73;49.41;100607.78;5127418;28;20050;-77
2022/07/27 00:39:30;;;;;;;11.00;10.00;;;;;;;18.75;49.52;100605.91;5122229;28;20042;-77
2022/07/27 00:41:56;;;;;;;10.55;9.52;;;;;;;18.77;48.84;100611.22;5121818;28;20045;-76
2022/07/27 00:44:25;;;;;;;10.63;9.82;;;;;;;18.73;48.51;100613.13;5122080;28;20117;-77
2022/07/27 00:46:51;;;;;;;10.75;9.88;;;;;;;18.66;48.51;100619.63;5125150;28;20141;-77
2022/07/27 00:49:17;;;;;;;10.75;9.70;;;;;;;18.61;48.49;100616.25;5104432;28;20114;-77
2022/07/27 00:51:42;;;;;;;10.75;9.70;;;;;;;18.64;48.17;100618.81;5120876;28;20039;-77
2022/07/27 00:54:07;;;;;;;11.77;10.85;;;;;;;18.57;48.12;100623.50;5121446;28;20035;-77
2022/07/27 00:56:33;;;;;;;10.52;9.82;;;;;;;18.55;48.53;100619.16;5122763;28;20034;-77
2022/07/27 00:58:58;;;;;;;9.50;8.80;;;;;;;18.62;48.39;100626.00;5124349;27;20111;-77
2022/07/27 01:01:23;;;;;;;11.20;10.18;;;;;;;18.66;48.36;100622.28;5126897;27;20111;-77
2022/07/27 01:03:49;;;;;;;10.63;9.75;;;;;;;18.68;48.36;100627.56;5123340;27;20039;-77
2022/07/27 01:06:15;;;;;;;9.80;8.90;;;;;;;18.60;48.49;100627.84;5125161;27;20036;-76
2022/07/27 01:08:41;;;;;;;10.63;9.90;;;;;;;18.65;48.03;100633.91;5124311;27;20043;-77
2022/07/27 01:11:07;;;;;;;11.25;9.27;;;;;;;18.69;48.04;100629.31;5124989;27;20413;-77
2022/07/27 01:13:33;;;;;;;10.80;9.95;;;;;;;18.65;47.77;100639.25;5108727;27;20035;-77
2022/07/27 01:15:59;;;;;;;9.90;9.30;;;;;;;18.65;48.18;100636.56;5124108;27;20447;-77
2022/07/27 01:18:30;;;;;;;10.50;9.80;;;;;;;18.64;47.98;100640.19;5127236;27;20578;-77
2022/07/27 01:20:56;;;;;;;11.55;10.65;;;;;;;18.50;47.70;100642.53;5107029;27;20040;-77
2022/07/27 01:23:23;;;;;;;11.10;10.40;;;;;;;18.38;47.35;100643.81;5106476;27;20123;-77
2022/07/27 01:25:48;;;;;;;11.48;9.57;;;;;;;18.35;47.14;100639.47;5127137;27;20043;-77
2022/07/27 01:28:13;;;;;;;10.90;9.98;;;;;;;18.36;47.14;100641.19;5123854;27;20043;-77
2022/07/27 01:30:39;;;;;;;10.95;9.90;;;;;;;18.33;47.53;100641.31;5126513;27;20148;-77
2022/07/27 01:33:07;;;;;;;10.20;9.45;;;;;;;18.45;47.57;100644.50;5122378;27;20042;-77
2022/07/27 01:35:32;;;;;;;9.40;8.63;;;;;;;18.27;47.53;100649.56;5125436;27;20028;-77
2022/07/27 01:37:59;;;;;;;10.38;9.48;;;;;;;18.30;47.67;100636.09;5124518;27;20088;-77
2022/07/27 01:40:25;;;;;;;11.55;10.30;;;;;;;18.37;47.45;100642.97;5127055;27;20042;-77
2022/07/27 01:42:50;;;;;;;10.70;9.73;;;;;;;18.37;47.68;100640.28;5119441;27;20035;-77
2022/07/27 01:45:16;;;;;;;10.63;9.82;;;;;;;18.40;47.91;100629.47;5125984;27;20037;-76
2022/07/27 01:47:41;;;;;;;10.45;9.75;;;;;;;18.42;47.71;100641.91;5124887;27;20063;-77
2022/07/27 01:50:07;;;;;;;10.45;9.75;;;;;;;18.37;47.66;100636.75;5124869;27;20065;-77
2022/07/27 01:52:33;;;;;;;11.60;10.70;;;;;;;18.40;47.57;100632.16;5125412;27;20046;-77
2022/07/27 01:54:58;;;;;;;10.13;9.30;;;;;;;18.44;47.95;100634.72;5123300;27;20034;-77
2022/07/27 01:57:23;;;;;;;10.65;9.73;;;;;;;18.36;47.96;100635.84;5126596;27;20035;-77
2022/07/27 01:59:49;;;;;;;10.63;9.93;;;;;;;18.36;48.34;100640.34;5123713;27;20505;-77
2022/07/27 02:02:15;;;;;;;10.90;10.00;;;;;;;18.43;47.99;100628.50;5121235;27;20115;-76
2022/07/27 02:04:41;;;;;;;9.80;9.10;;;;;;;18.44;47.81;100634.72;5124631;27;20452;-77
2022/07/27 02:07:06;;;;;;;11.32;10.57;;;;;;;18.38;48.03;100647.38;5123894;27;20454;-77
2022/07/27 02:09:32;;;;;;;10.80;10.07;;;;;;;18.44;48.06;100648.94;5124972;27;20031;-77
2022/07/27 02:14:41;;;;;;;11.77;10.70;;;;;;;18.45;48.48;100631.13;5123322;27;20032;-77
2022/07/27 02:17:06;;;;;;;11.13;9.85;;;;;;;18.38;48.36;100641.16;5123322;27;20111;-77
2022/07/27 02:19:32;;;;;;;9.38;8.63;;;;;;;18.30;48.46;100652.13;5129742;27;20069;-77
2022/07/27 02:21:57;;;;;;;11.00;10.30;;;;;;;18.24;48.47;100649.69;5128901;27;20075;-77
2022/07/27 02:24:22;;;;;;;10.85;10.05;;;;;;;18.26;48.34;100650.50;5123966;27;20059;-76
2022/07/27 02:26:47;;;;;;;11.10;10.30;;;;;;;18.21;48.23;100649.78;5123014;27;20035;-77
2022/07/27 02:29:13;;;;;;;11.55;9.30;;;;;;;18.01;48.61;100655.84;5129595;27;20047;-77
2022/07/27 02:31:38;;;;;;;12.18;11.13;;;;;;;17.92;48.67;100659.69;5122167;27;20490;-77
2022/07/27 02:34:03;;;;;;;11.75;10.75;;;;;;;17.91;48.61;100659.75;5125589;27;20049;-77
2022/07/27 02:36:29;;;;;;;11.20;10.30;;;;;;;17.90;48.98;100668.69;5122669;27;20040;-77
2022/07/27 02:38:55;;;;;;;11.38;10.02;;;;;;;17.75;48.99;100660.22;5106613;27;20037;-77
2022/07/27 02:41:20;;;;;;;10.52;9.73;;;;;;;17.75;48.66;100649.56;5104995;27;20035;-77
2022/07/27 02:43:45;;;;;;;11.77;10.95;;;;;;;17.72;48.92;100644.31;5123268;27;20454;-77
2022/07/27 02:46:11;;;;;;;12.27;11.25;;;;;;;17.66;48.86;100644.53;5125243;27;20039;-77
2022/07/27 02:48:37;;;;;;;11.13;10.15;;;;;;;17.68;48.79;100648.03;5103678;28;20080;-77
2022/07/27 02:51:02;;;;;;;12.27;9.23;;;;;;;17.63;48.94;100655.31;5118210;27;20038;-77
2022/07/27 02:53:29;;;;;;;13.00;10.27;;;;;;;17.52;48.88;100657.44;5123917;27;20471;-77
2022/07/27 02:55:55;;;;;;;11.35;10.48;;;;;;;17.50;49.36;100657.53;5123635;27;20031;-77
2022/07/27 02:58:20;;;;;;;11.07;10.23;;;;;;;17.63;49.36;100667.78;5123139;27;20039;-77
2022/07/27 03:00:46;;;;;;;10.77;10.00;;;;;;;17.60;49.36;100665.19;5124881;27;20122;-77
2022/07/27 03:03:12;;;;;;;11.77;10.75;;;;;;;17.71;49.14;100673.72;5123888;27;20035;-77
2022/07/27 03:05:38;;;;;;;11.25;10.35;;;;;;;17.77;49.46;100668.19;5121708;27;20545;-77
2022/07/27 03:08:03;;;;;;;11.13;10.02;;;;;;;17.73;49.35;100671.88;5097456;27;20050;-77
2022/07/27 03:10:29;;;;;;;11.32;10.32;;;;;;;17.82;49.20;100660.94;5119218;27;20043;-76
2022/07/27 03:12:54;;;;;;;10.25;9.45;;;;;;;17.75;48.75;100657.56;5126946;27;20038;-77
2022/07/27 03:15:19;;;;;;;10.77;9.80;;;;;;;17.76;49.00;100655.75;5124347;27;20038;-77
2022/07/27 03:17:45;;;;;;;10.73;9.32;;;;;;;17.79;48.10;100655.72;5125691;27;20047;-77
2022/07/27 03:20:10;;;;;;;8.10;7.60;;;;;;;17.61;48.89;100659.81;5113439;27;20042;-77
2022/07/27 03:22:36;;;;;;;9.05;8.13;;;;;;;17.65;48.77;100663.25;5123658;27;20172;-77
2022/07/27 03:25:02;;;;;;;9.27;7.25;;;;;;;17.65;49.07;100665.94;5130511;27;20038;-76
2022/07/27 03:27:28;;;;;;;9.10;7.70;;;;;;;17.53;48.70;100669.88;5099664;27;20063;-77
2022/07/27 03:29:53;;;;;;;10.27;7.30;;;;;;;17.50;49.13;100677.97;5085925;27;20039;-77
2022/07/27 03:32:19;;;;;;;9.15;8.27;;;;;;;17.50;49.17;100685.97;5104090;27;20506;-77
2022/07/27 03:34:44;;;;;;;8.38;7.53;;;;;;;17.53;49.08;100680.56;5104967;27;20161;-76
2022/07/27 03:37:09;;;;;;;8.45;7.47;;;;;;;17.64;48.71;100680.22;5105772;27;20039;-77
2022/07/27 03:39:35;;;;;;;9.20;8.35;;;;;;;17.58;48.62;100680.38;5104021;27;20065;-77
2022/07/27 03:42:00;;;;;;;12.63;7.53;;;;;;;17.54;49.30;100684.97;5122161;27;20080;-77
2022/07/27 03:44:26;;;;;;;7.72;7.22;;;;;;;17.52;49.45;100674.31;5123172;27;20035;-77
2022/07/27 03:46:51;;;;;;;8.27;7.68;;;;;;;17.57;48.98;100670.66;5103441;28;20088;-77
2022/07/27 03:49:16;;;;;;;7.85;7.30;;;;;;;17.48;47.73;100677.16;5121019;27;20045;-76
2022/07/27 03:51:41;;;;;;;8.65;7.97;;;;;;;17.28;48.11;100677.78;5123924;27;20197;-77
2022/07/27 03:54:07;;;;;;;8.77;8.07;;;;;;;17.21;48.50;100666.47;5123715;27;20069;-77
2022/07/27 03:56:32;;;;;;;10.40;8.15;;;;;;;17.36;47.98;100680.22;5122111;27;20063;-76
2022/07/27 03:58:58;;;;;;;9.57;8.48;;;;;;;17.28;48.03;100668.00;5122624;27;20043;-76
2022/07/27 04:01:23;;;;;;;8.75;7.95;;;;;;;17.28;48.09;100672.47;5085715;27;20493;-77
2022/07/27 04:03:49;;;;;;;8.65;8.02;;;;;;;17.24;48.14;100674.34;5125930;27;20118;-77
2022/07/27 04:06:14;;;;;;;9.27;7.80;;;;;;;17.21;48.47;100668.22;5124218;27;20688;-77
2022/07/27 04:08:39;;;;;;;9.15;8.35;;;;;;;17.31;48.68;100675.03;5102638;27;20504;-77
2022/07/27 04:11:05;;;;;;;8.55;8.05;;;;;;;17.21;49.65;100673.56;5122479;27;20042;-77
2022/07/27 04:13:30;;;;;;;9.77;8.90;;;;;;;17.18;49.79;100674.53;5086853;27;20031;-77
2022/07/27 04:15:56;;;;;;;9.20;8.52;;;;;;;17.12;49.81;100663.19;5121944;27;20027;-76
2022/07/27 04:18:22;;;;;;;10.50;9.70;;;;;;;17.08;49.90;100660.63;5123407;27;20043;-77
2022/07/27 04:20:47;;;;;;;15.52;9.15;;;;;;;17.08;49.91;100659.72;5102249;28;20390;-77
2022/07/27 04:23:13;;;;;;;8.38;7.80;;;;;;;17.03;50.11;100670.56;5119724;27;20084;-74
2022/07/27 04:25:38;;;;;;;9.13;8.45;;;;;;;17.02;50.13;100667.94;5121422;27;20027;-75
2022/07/27 04:28:04;;;;;;;9.07;8.02;;;;;;;17.08;50.09;100673.97;5121840;27;20508;-74
2022/07/27 04:30:29;;;;;;;8.60;8.07;;;;;;;17.21;50.22;100679.78;5126696;28;20515;-75
2022/07/27 04:32:54;;;;;;;7.72;7.15;;;;;;;17.19;49.70;100686.09;5119949;27;20039;-75
2022/07/27 04:35:20;;;;;;;8.18;7.63;;;;;;;17.21;50.16;100685.13;5117006;28;20027;-75
2022/07/27 04:37:45;;;;;;;7.25;6.85;;;;;;;17.17;49.47;100686.13;5117798;28;20027;-74
2022/07/27 04:40:11;;;;;;;7.32;6.93;;;;;;;17.15;49.47;100692.44;5116379;28;20036;-74
2022/07/27 04:42:36;;;;;;;8.10;7.50;;;;;;;17.15;49.66;100684.44;5111309;28;20107;-75
2022/07/27 04:45:02;;;;;;;7.72;7.20;;;;;;;17.06;49.16;100688.25;5124538;28;20031;-74
2022/07/27 04:47:28;;;;;;;9.02;8.32;;;;;;;16.82;50.08;100693.41;5112063;28;20138;-74
2022/07/27 04:49:54;;;;;;;7.85;7.35;;;;;;;16.86;50.43;100687.06;5113725;28;20075;-74
2022/07/27 04:52:19;;;;;;;8.27;7.50;;;;;;;16.87;50.35;100685.25;5126349;28;20042;-75
2022/07/27 04:54:44;;;;;;;8.75;8.25;;;;;;;16.85;50.70;100684.44;5124090;28;20031;-75
2022/07/27 04:57:10;;;;;;;8.70;8.05;;;;;;;16.83;50.66;100694.28;5119645;28;20063;-75
2022/07/27 04:59:35;;;;;;;9.32;8.43;;;;;;;16.79;50.49;100692.59;5119640;28;20074;-75
2022/07/27 05:02:00;;;;;;;8.93;8.07;;;;;;;16.79;50.99;100698.84;5120776;28;20063;-75
2022/07/27 05:04:26;;;;;;;7.57;7.18;;;;;;;16.86;50.78;100703.03;5121790;28;20114;-75
2022/07/27 05:06:51;;;;;;;8.48;7.80;;;;;;;16.81;50.91;100702.31;5125846;28;20039;-75
2022/07/27 05:09:16;;;;;;;9.05;7.93;;;;;;;16.71;50.43;100703.44;5122010;28;20284;-74
2022/07/27 05:11:42;;;;;;;8.88;8.25;;;;;;;16.62;50.96;100717.94;5123060;28;20080;-75
2022/07/27 05:14:07;;;;;;;9.23;8.50;;;;;;;16.55;51.13;100719.00;5119605;28;20039;-75
2022/07/27 05:16:32;;;;;;;8.23;7.78;;;;;;;16.53;51.17;100715.53;5121854;28;20100;-75
2022/07/27 05:18:58;;;;;;;8.45;7.95;;;;;;;16.70;50.75;100717.72;5122189;28;20036;-75
2022/07/27 05:21:24;;;;;;;8.43;7.72;;;;;;;16.81;50.63;100733.44;5119571;28;20035;-75
2022/07/27 05:23:49;;;;;;;7.47;6.88;;;;;;;16.69;50.85;100736.41;5122985;28;20084;-75
2022/07/27 05:26:14;;;;;;;7.20;6.70;;;;;;;16.61;51.29;100750.81;5114966;28;20119;-75
2022/07/27 05:28:39;;;;;;;8.82;7.93;;;;;;;16.61;51.25;100753.50;5119123;28;20044;-75
2022/07/27 05:31:05;;;;;;;7.88;7.47;;;;;;;16.50;51.38;100760.88;5120953;28;20035;-75
2022/07/27 05:33:30;;;;;;;7.05;6.65;;;;;;;16.58;51.51;100766.91;5121243;28;20042;-75
2022/07/27 05:35:56;;;;;;;8.00;7.40;;;;;;;16.78;50.86;100770.84;5122004;28;20035;-75
2022/07/27 05:38:21;;;;;;;7.45;7.05;;;;;;;16.91;50.86;100766.91;5120027;28;20070;-75
2022/07/27 05:40:47;;;;;;;7.20;6.80;;;;;;;17.03;50.21;100771.03;5123043;28;20043;-75
2022/07/27 05:43:12;;;;;;;7.50;7.10;;;;;;;17.00;50.40;100771.97;5119735;27;20850;-75
2022/07/27 05:45:38;;;;;;;7.55;7.15;;;;;;;17.11;50.25;100774.34;5125571;27;20042;-75
2022/07/27 05:48:03;;;;;;;7.40;6.70;;;;;;;17.07;50.24;100776.19;5124663;27;20402;-74
2022/07/27 05:50:29;;;;;;;8.90;8.20;;;;;;;16.95;50.96;100771.25;5122063;27;20107;-75
2022/07/27 05:52:56;;;;;;;8.02;7.43;;;;;;;16.98;50.92;100779.16;5127927;27;20378;-75
2022/07/27 05:55:21;;;;;;;6.97;6.57;;;;;;;16.91;50.88;100777.56;5106657;27;20132;-75
2022/07/27 05:57:46;;;;;;;7.57;6.88;;;;;;;16.97;51.04;100784.50;5130232;27;20069;-75
2022/07/27 06:00:12;;;;;;;8.35;7.65;;;;;;;17.06;51.19;100786.94;5129290;27;20106;-75
2022/07/27 06:02:38;;;;;;;7.07;6.68;;;;;;;17.08;50.63;100787.72;5092895;27;20130;-75
2022/07/27 06:05:04;;;;;;;8.27;7.50;;;;;;;17.11;50.65;100792.09;5128933;27;20066;-75
2022/07/27 06:10:13;;;;;;;12.57;7.20;;;;;;;17.00;50.75;100798.66;5123470;27;20035;-75
2022/07/27 06:12:40;;;;;;;8.75;7.93;;;;;;;17.06;50.88;100801.13;5125141;27;20040;-75
2022/07/27 06:15:08;;;;;;;8.02;7.53;;;;;;;17.13;50.64;100808.94;5132252;27;20031;-75
2022/07/27 06:17:39;;;;;;;7.22;6.82;;;;;;;17.14;50.91;100805.38;5108605;27;20404;-75
2022/07/27 06:20:12;;;;;;;7.32;6.93;;;;;;;17.12;50.58;100807.19;5128779;27;20053;-75
2022/07/27 06:22:49;;;;;;;9.27;7.07;;;;;;;17.08;50.45;100806.41;5108268;27;20442;-76
2022/07/27 06:25:16;;;;;;;7.43;6.82;;;;;;;17.06;50.42;100809.13;5123947;27;20477;-75
2022/07/27 06:27:45;;;;;;;8.15;7.65;;;;;;;17.03;50.15;100819.88;5124057;27;20551;-76
2022/07/27 06:30:13;;;;;;;8.07;7.22;;;;;;;16.90;50.58;100812.25;5113936;27;20113;-76
2022/07/27 06:32:41;;;;;;;8.30;7.80;;;;;;;16.90;50.76;100810.47;5104105;27;20093;-76
2022/07/27 06:35:07;;;;;;;8.20;7.70;;;;;;;17.15;50.69;100807.09;5073985;27;20027;-76
2022/07/27 06:37:33;;;;;;;7.95;7.45;;;;;;;17.41;50.09;100798.34;5118246;27;20130;-76
2022/07/27 06:39:59;;;;;;;8.35;7.57;;;;;;;17.52;49.58;100796.22;5128265;27;20042;-76
2022/07/27 06:42:25;;;;;;;6.78;6.38;;;;;;;17.66;49.70;100811.81;5128098;27;20096;-76
2022/07/27 06:44:51;;;;;;;7.32;6.88;;;;;;;17.76;49.21;100805.25;5126498;27;20044;-76
2022/07/27 06:47:16;;;;;;;8.32;7.82;;;;;;;17.77;49.13;100809.69;5127800;27;20041;-75
2022/07/27 06:49:42;;;;;;;7.43;6.93;;;;;;;17.60;49.33;100812.84;5124725;27;20482;-76
2022/07/27 06:52:07;;;;;;;8.73;7.88;;;;;;;17.60;49.81;100826.19;5100618;27;20485;-75
2022/07/27 06:54:33;;;;;;;8.70;8.02;;;;;;;17.54;49.09;100821.06;5123989;27;20489;-76
2022/07/27 06:56:58;;;;;;;7.20;6.80;;;;;;;17.46;49.60;100823.97;5123293;27;20386;-76
2022/07/27 06:59:24;;;;;;;7.45;6.95;;;;;;;17.55;49.55;100833.47;5128015;27;20039;-77
2022/07/27 07:01:49;;;;;;;7.38;6.68;;;;;;;17.64;49.34;100829.66;5116039;27;20035;-76
2022/07/27 07:04:14;;;;;;;8.20;7.60;;;;;;;17.73;49.64;100827.56;5101602;27;20043;-76
2022/07/27 07:06:40;;;;;;;7.20;6.80;;;;;;;17.80;48.98;100822.97;5099780;27;20034;-76
2022/07/27 07:09:05;;;;;;;7.70;7.20;;;;;;;17.95;48.78;100819.81;5125383;27;20041;-76
2022/07/27 07:11:31;;;;;;;7.43;6.93;;;;;;;18.13;48.87;100818.34;5120588;27;20078;-76
2022/07/27 07:13:56;;;;;;;7.10;6.68;;;;;;;18.18;48.47;100820.84;5124135;27;20034;-76
2022/07/27 07:16:21;;;;;;;7.13;6.63;;;;;;;18.20;48.33;100815.47;5121963;27;20032;-76
2022/07/27 07:18:46;;;;;;;6.70;6.30;;;;;;;18.15;48.34;100820.94;5123686;27;20539;-76
2022/07/27 07:21:14;;;;;;;6.32;5.93;;;;;;;18.02;49.22;100822.28;5122123;27;20046;-77
2022/07/27 07:23:39;;;;;;;7.18;6.78;;;;;;;17.66;49.78;100828.69;5121804;27;20031;-76
2022/07/27 07:26:05;;;;;;;7.63;6.97;;;;;;;17.62;49.89;100820.81;5124153;27;20103;-76
2022/07/27 07:28:31;;;;;;;7.57;6.88;;;;;;;17.64;50.10;100827.88;5121021;27;20102;-76
2022/07/27 07:30:56;;;;;;;7.90;7.32;;;;;;;17.69;50.04;100827.72;5123375;27;20043;-77
2022/07/27 07:33:21;;;;;;;7.70;7.15;;;;;;;17.56;50.42;100821.91;5121208;27;20036;-76
2022/07/27 07:35:46;;;;;;;7.30;6.90;;;;;;;17.70;50.32;100826.81;5119441;27;20513;-76
2022/07/27 07:38:12;;;;;;;8.77;8.10;;;;;;;17.78;50.02;100819.41;5117651;27;20046;-76
2022/07/27 07:40:37;;;;;;;8.07;7.38;;;;;;;17.78;49.72;100822.09;5126254;27;20031;-75
2022/07/27 07:43:06;;;;;;;8.10;7.50;;;;;;;17.68;50.65;100824.19;5123554;27;20027;-76
2022/07/27 07:45:34;;;;;;;11.77;7.43;;;;;;;17.70;50.76;100821.47;5100225;27;20047;-76
2022/07/27 07:47:59;;;;;;;7.70;7.10;;;;;;;17.92;50.72;100814.56;5123956;27;20090;-76
2022/07/27 07:50:26;;;;;;;7.75;7.25;;;;;;;18.01;50.10;100815.19;5122289;27;20100;-76
2022/07/27 07:52:53;;;;;;;7.72;7.13;;;;;;;18.20;49.91;100813.66;5121329;27;20047;-76
2022/07/27 07:55:20;;;;;;;7.63;6.90;;;;;;;18.10;49.72;100814.88;5129231;27;20505;-76
2022/07/27 07:57:45;;;;;;;7.70;7.20;;;;;;;18.21;49.32;100815.41;5098891;27;20133;-76
2022/07/27 08:00:11;;;;;;;6.50;6.10;;;;;;;18.30;49.23;100811.56;5124663;27;20440;-76
2022/07/27 08:02:46;;;;;;;7.30;6.70;;;;;;;18.35;48.54;100810.47;5121013;27;20087;-76
2022/07/27 08:05:12;;;;;;;7.82;7.07;;;;;;;18.51;48.69;100813.50;5128295;27;20043;-76
2022/07/27 08:07:38;;;;;;;7.65;6.93;;;;;;;18.68;48.57;100817.38;5120461;27;20027;-76
2022/07/27 08:10:06;;;;;;;7.13;6.63;;;;;;;18.70;47.91;100811.03;5122175;27;20031;-76
2022/07/27 08:12:32;;;;;;;7.18;6.68;;;;;;;18.91;47.23;100811.25;5117828;27;20434;-76
2022/07/27 08:14:58;;;;;;;6.95;6.55;;;;;;;18.72;47.04;100811.88;5125937;27;20079;-76
2022/07/27 08:17:23;;;;;;;6.40;6.00;;;;;;;18.76;46.71;100816.22;5127494;27;20031;-75
2022/07/27 08:19:48;;;;;;;7.45;6.95;;;;;;;18.80;45.70;100811.63;5120484;27;20044;-76
2022/07/27 08:22:15;;;;;;;8.68;8.07;;;;;;;19.01;46.03;100818.00;5127852;27;20042;-76
2022/07/27 08:24:41;;;;;;;7.80;7.20;;;;;;;19.12;46.21;100817.59;5071415;27;20088;-76
2022/07/27 08:27:06;;;;;;;8.15;7.55;;;;;;;19.16;45.11;100825.47;5121901;27;20099;-76
2022/07/27 08:29:32;;;;;;;8.35;7.85;;;;;;;19.37;45.19;100822.94;5115495;27;20087;-77
2022/07/27 08:31:57;;;;;;;8.55;7.47;;;;;;;19.49;45.01;100834.03;5093992;28;20043;-77
2022/07/27 08:34:24;;;;;;;9.38;7.95;;;;;;;19.56;44.93;100828.44;5090841;28;20044;-77
2022/07/27 08:36:49;;;;;;;8.15;7.55;;;;;;;19.81;44.18;100831.94;5118095;28;20451;-77
2022/07/27 08:39:14;;;;;;;8.18;7.68;;;;;;;19.91;44.21;100819.94;5104632;28;20126;-76
2022/07/27 08:41:41;;;;;;;7.30;6.90;;;;;;;20.18;43.59;100827.78;5127970;28;20140;-78
2022/07/27 08:44:10;;;;;;;7.22;6.72;;;;;;;20.12;42.95;100828.91;5070045;28;20039;-76
2022/07/27 08:46:39;;;;;;;7.70;7.20;;;;;;;19.95;43.05;100826.03;5100604;28;20063;-76
2022/07/27 08:49:07;;;;;;;7.90;7.20;;;;;;;20.03;42.58;100825.72;5126308;28;20474;-76
2022/07/27 08:51:33;;;;;;;8.43;7.93;;;;;;;20.09;42.91;100825.44;5097368;28;20039;-76
2022/07/27 08:53:59;;;;;;;7.93;7.35;;;;;;;20.51;42.82;100819.22;5123643;28;20080;-76
2022/07/27 08:56:25;;;;;;;7.38;6.85;;;;;;;20.53;41.94;100823.59;5119904;28;20032;-77
2022/07/27 08:58:50;;;;;;;8.85;8.35;;;;;;;20.48;41.89;100830.09;5090920;28;20162;-77
2022/07/27 09:01:16;;;;;;;7.88;7.28;;;;;;;20.61;42.43;100819.75;5119638;28;20043;-77
2022/07/27 09:03:41;;;;;;;7.97;7.47;;;;;;;20.76;42.40;100829.81;5121674;28;20057;-76
2022/07/27 09:06:07;;;;;;;8.75;8.13;;;;;;;20.47;41.87;100823.88;5121155;28;20035;-77
2022/07/27 09:08:32;;;;;;;8.07;7.57;;;;;;;20.61;42.44;100819.75;5120591;28;20106;-76
2022/07/27 09:10:59;;;;;;;7.85;7.35;;;;;;;20.56;40.92;100823.47;5122063;28;20031;-78
2022/07/27 09:13:26;;;;;;;7.95;7.55;;;;;;;20.63;41.46;100824.09;5119859;28;20099;-77
2022/07/27 09:16:04;;;;;;;7.72;7.22;;;;;;;20.57;41.19;100822.56;5116407;28;20019;-76
2022/07/27 09:18:36;;;;;;;7.55;7.05;;;;;;;20.35;41.56;100822.56;5120827;27;20035;-77
2022/07/27 09:21:19;;;;;;;;;;;;;;;20.37;41.44;100827.88;5120242;27;20500;-77
2022/07/27 09:23:52;;;;;;;7.85;7.35;;;;;;;20.14;41.64;100820.78;5122832;27;19919;-77
2022/07/27 09:26:28;;;;;;;7.93;7.40;;;;;;;20.30;41.47;100824.59;5124415;27;20493;-76
2022/07/27 09:28:56;;;;;;;13.73;7.15;;;;;;;20.36;41.73;100818.09;5124792;27;20054;-76
2022/07/27 09:31:23;;;;;;;12.77;7.55;;;;;;;20.41;42.16;100817.88;5123281;27;20577;-77
2022/07/27 09:33:57;;;;;;;8.07;7.57;;;;;;;20.28;42.32;100822.91;5124049;27;20494;-76
2022/07/27 09:36:24;;;;;;;7.57;6.90;;;;;;;20.05;41.93;100822.03;5126368;27;20027;-77
2022/07/27 09:39:05;;;;;;;8.35;7.85;;;;;;;20.29;41.65;100813.91;5100752;27;20047;-77
2022/07/27 09:41:44;;;;;;;8.52;7.93;;;;;;;20.56;40.71;100811.91;5113713;27;20055;-77
2022/07/27 09:44:11;;;;;;;9.13;8.40;;;;;;;20.86;41.12;100817.75;5122744;27;20433;-75
2022/07/27 09:46:43;;;;;;;7.53;7.03;;;;;;;21.27;40.20;100811.44;5078820;27;20057;-76
2022/07/27 09:49:30;;;;;;;9.00;8.40;;;;;;;21.65;38.62;100809.69;5128086;27;20694;-77
2022/07/27 09:51:57;;;;;;;8.98;8.27;;;;;;;22.16;37.66;100805.38;5110998;27;20374;-76
2022/07/27 09:54:23;;;;;;;9.77;9.20;;;;;;;22.78;37.30;100799.56;5130192;27;20119;-76
2022/07/27 09:57:00;;;;;;;8.65;8.15;;;;;;;22.69;36.56;100809.00;5120624;27;20501;-76
2022/07/27 09:59:25;;;;;;;9.02;8.52;;;;;;;22.52;36.79;100807.19;5105713;27;20117;-77
2022/07/27 10:01:53;;;;;;;8.13;7.25;;;;;;;22.86;36.70;100797.34;5124191;27;20440;-77
2022/07/27 10:04:18;;;;;;;7.70;7.20;;;;;;;22.91;36.87;100803.34;5129526;27;20043;-76
2022/07/27 10:06:44;;;;;;;7.68;7.18;;;;;;;22.53;35.66;100800.84;5129679;27;20455;-77
2022/07/27 10:09:09;;;;;;;7.50;6.88;;;;;;;22.25;36.97;100799.56;5124434;27;20046;-76
2022/07/27 10:11:36;;;;;;;8.93;8.32;;;;;;;22.70;36.53;100790.09;5126485;27;20418;-77
2022/07/27 10:14:01;;;;;;;8.07;7.60;;;;;;;23.03;36.30;100785.69;5135225;27;20019;-78
2022/07/27 10:16:29;;;;;;;8.13;7.38;;;;;;;23.04;35.83;100792.84;5122536;27;20042;-76
2022/07/27 10:18:57;;;;;;;8.68;8.18;;;;;;;23.43;35.19;100783.53;5125265;27;20580;-78
2022/07/27 10:21:23;;;;;;;7.93;7.43;;;;;;;23.66;35.43;100784.91;5123653;27;20556;-77
2022/07/27 10:23:58;;;;;;;8.60;8.07;;;;;;;23.76;34.81;100787.06;5123176;27;20409;-77
2022/07/27 10:26:23;;;;;;;10.65;9.75;;;;;;;23.47;35.53;100785.09;5114412;27;20035;-78
2022/07/27 10:28:51;;;;;;;9.52;8.75;;;;;;;23.47;35.67;100785.94;5126680;27;20061;-78
2022/07/27 10:31:18;;;;;;;8.65;8.02;;;;;;;23.67;35.59;100782.13;5122079;27;20042;-77
2022/07/27 10:33:47;;;;;;;7.90;7.20;;;;;;;23.90;34.99;100785.38;5116112;27;20031;-77
2022/07/27 10:36:32;;;;;;;8.93;8.32;;;;;;;23.36;34.20;100785.69;5095006;27;20023;-76
2022/07/27 10:39:00;;;;;;;8.18;7.55;;;;;;;22.70;35.24;100795.47;5119363;27;20374;-77
2022/07/27 10:41:28;;;;;;;9.85;9.15;;;;;;;22.62;35.47;100791.44;5121533;27;20039;-78
2022/07/27 10:44:16;;;;;;;8.63;8.13;;;;;;;22.37;36.07;100776.56;5120601;27;20035;-77
2022/07/27 10:47:07;;;;;;;8.73;8.13;;;;;;;22.65;35.61;100775.13;5100350;27;20044;-77
2022/07/27 10:49:34;;;;;;;10.50;9.57;;;;;;;23.06;34.70;100775.66;5117634;27;20044;-77
2022/07/27 10:52:01;;;;;;;8.57;7.88;;;;;;;23.25;34.35;100774.66;5121304;27;20371;-77
2022/07/27 10:54:37;;;;;;;8.63;8.05;;;;;;;23.27;35.17;100780.81;5125151;27;20122;-77
2022/07/27 10:57:05;;;;;;;8.73;8.02;;;;;;;23.35;34.57;100771.34;5120110;27;20410;-77
2022/07/27 10:59:36;;;;;;;8.45;7.75;;;;;;;22.75;34.77;100785.31;5122909;27;20087;-77
2022/07/27 11:02:03;;;;;;;7.70;7.10;;;;;;;22.47;34.70;100777.81;5069829;28;20378;-78
2022/07/27 11:04:29;;;;;;;8.93;8.23;;;;;;;22.62;35.10;100776.16;5120005;27;20123;-78
2022/07/27 11:06:59;;;;;;;8.98;8.15;;;;;;;22.87;34.71;100775.75;5129151;27;20374;-78
2022/07/27 11:09:34;;;;;;;10.65;9.82;;;;;;;23.04;34.22;100768.63;5123483;27;20036;-78
2022/07/27 11:12:00;;;;;;;9.82;8.25;;;;;;;22.86;34.80;100773.13;5115804;27;20043;-78
2022/07/27 11:14:27;;;;;;;9.05;8.40;;;;;;;23.29;33.78;100768.13;5124635;27;20425;-78
2022/07/27 11:16:53;;;;;;;9.63;8.77;;;;;;;23.61;33.02;100772.59;5123129;27;20689;-78
2022/07/27 11:19:20;;;;;;;9.82;9.07;;;;;;;23.76;33.72;100767.28;5085912;27;20039;-78
2022/07/27 11:21:47;;;;;;;9.27;8.68;;;;;;;23.94;33.16;100768.06;5105547;27;20034;-78
2022/07/27 11:24:17;;;;;;;8.68;7.97;;;;;;;24.22;33.05;100761.94;5121463;27;20035;-78